Montclair, California
Current Conditions -  °F | °C
As of 6:53 PM on Saturday 22 Nov 2014 (Local Time) from KONT Reporting Station
Broken Clouds Broken Clouds  
Wind Chill: 61°   Ceiling: 15000
Heat Index: 61°   Visibility: 10mi
Dew Point: 53°   Wind: 7mph
Humidity: 75%   Direction: 270°W
Pressure: 30.02"   Gusts: NA
Location:  34.07°N, 117.69°W
Report Text: KONT 230253Z 27006KT 10SM BKN150 16/12 A3002 RMK AO2 SLP163 T01610117 53006
Loading
Personal Weather Stations






























Interactive Weather Map New forecast layout! Learn more

10-Day Weather Forecast

Advertisements
Track Severe Weather on mobile